Time;durP1;ratioP1;P1;durP2;ratioP2;P2;SDS_P1;SDS_P2;PMS_P1;PMS_P2;Temp;Humidity;BMP_temperature;BMP_pressure;BME280_temperature;BME280_humidity;BME280_pressure;Samples;Min_cycle;Max_cycle;Signal;HPM_P1;HPM_P2
2024/02/10 00:00:58;;;;;;;11.55;6.18;;;22.90;46.70;;;;;;5073581;28;20033;-36
2024/02/10 00:03:24;;;;;;;13.68;6.13;;;22.90;47.00;;;;;;5076566;28;20020;-38
2024/02/10 00:05:50;;;;;;;12.38;6.18;;;22.90;46.80;;;;;;5059770;28;20053;-40
2024/02/10 00:08:16;;;;;;;14.98;6.68;;;22.90;46.80;;;;;;5056011;28;20367;-36
2024/02/10 00:10:42;;;;;;;9.77;5.85;;;22.90;46.80;;;;;;5058145;28;20139;-39
2024/02/10 00:13:11;;;;;;;7.95;4.57;;;22.90;47.00;;;;;;5056226;28;20031;-38
2024/02/10 00:15:39;;;;;;;9.75;5.10;;;22.90;46.70;;;;;;5058961;28;20049;-37
2024/02/10 00:18:05;;;;;;;10.05;4.82;;;22.90;46.70;;;;;;5061842;28;20059;-37
2024/02/10 00:20:32;;;;;;;10.47;5.47;;;22.90;46.70;;;;;;5057913;28;20029;-40
2024/02/10 00:22:58;;;;;;;8.77;5.47;;;22.90;46.60;;;;;;5059825;28;20039;-40
2024/02/10 00:25:24;;;;;;;10.82;4.70;;;22.90;46.60;;;;;;5055539;28;20049;-37
2024/02/10 00:27:53;;;;;;;9.23;4.88;;;22.90;46.70;;;;;;5054479;28;20037;-37
2024/02/10 00:30:19;;;;;;;7.80;5.20;;;22.90;46.60;;;;;;5054009;28;20033;-39
2024/02/10 00:32:51;;;;;;;6.75;4.40;;;22.90;46.60;;;;;;5061356;28;20033;-37
2024/02/10 00:35:21;;;;;;;11.15;5.03;;;22.90;46.80;;;;;;5056720;28;20063;-37
2024/02/10 00:37:49;;;;;;;12.18;5.13;;;22.80;46.60;;;;;;5059018;28;20021;-41
2024/02/10 00:40:15;;;;;;;10.30;5.22;;;22.80;46.70;;;;;;5059236;28;20075;-38
2024/02/10 00:42:42;;;;;;;8.43;4.80;;;22.80;46.70;;;;;;5053239;28;20025;-36
2024/02/10 00:45:09;;;;;;;12.30;4.60;;;22.80;46.70;;;;;;5053749;28;20021;-39
2024/02/10 00:47:35;;;;;;;;;;;22.80;46.80;;;;;;5054747;28;20037;-38
2024/02/10 00:50:03;;;;;;;13.07;4.63;;;22.80;46.90;;;;;;5054318;28;19940;-35
2024/02/10 00:52:29;;;;;;;11.90;4.47;;;22.80;46.80;;;;;;5057151;28;20541;-40
2024/02/10 00:54:58;;;;;;;12.65;4.20;;;22.80;46.80;;;;;;5056728;28;20037;-35
2024/02/10 00:57:26;;;;;;;8.85;4.50;;;22.80;46.70;;;;;;5059387;28;20088;-33
2024/02/10 00:59:52;;;;;;;10.40;4.18;;;22.80;46.60;;;;;;5051237;28;20108;-37
2024/02/10 01:02:19;;;;;;;8.02;3.83;;;22.80;46.60;;;;;;5053847;28;20039;-34
2024/02/10 01:04:47;;;;;;;12.02;4.47;;;22.80;46.60;;;;;;5058370;28;20703;-37
2024/02/10 01:07:16;;;;;;;8.95;3.90;;;22.80;46.60;;;;;;5074052;28;20057;-37
2024/02/10 01:09:48;;;;;;;8.30;4.30;;;22.80;46.50;;;;;;5072556;28;20033;-34
2024/02/10 01:12:17;;;;;;;6.40;3.63;;;22.80;46.80;;;;;;5072661;28;20036;-33
2024/02/10 01:14:44;;;;;;;6.85;3.45;;;22.80;47.00;;;;;;5076513;28;20036;-37
2024/02/10 01:17:10;;;;;;;9.82;3.83;;;22.80;46.70;;;;;;5072832;28;20041;-36
2024/02/10 01:19:51;;;;;;;7.43;3.88;;;22.80;46.60;;;;;;5070288;28;20426;-36
2024/02/10 01:22:41;;;;;;;6.78;3.92;;;22.80;46.80;;;;;;4996073;28;20034;-35
2024/02/10 01:25:08;;;;;;;6.30;3.47;;;22.80;46.60;;;;;;4999776;28;20121;-35
2024/02/10 01:27:34;;;;;;;7.85;3.50;;;22.80;46.50;;;;;;4998986;28;20046;-37
2024/02/10 01:30:03;;;;;;;7.72;3.40;;;22.80;46.50;;;;;;4999213;28;20038;-38
2024/02/10 01:32:30;;;;;;;6.35;3.60;;;22.80;46.50;;;;;;5001543;28;20037;-39
2024/02/10 01:34:56;;;;;;;4.65;3.40;;;22.80;46.60;;;;;;4999717;28;20154;-37
2024/02/10 01:37:23;;;;;;;5.97;3.20;;;22.80;46.70;;;;;;4991766;28;20114;-38
2024/02/10 01:39:57;;;;;;;4.88;3.17;;;22.80;47.30;;;;;;4994950;28;20049;-36
2024/02/10 01:42:45;;;;;;;4.78;2.90;;;22.80;46.60;;;;;;4995674;28;20035;-38
2024/02/10 01:45:14;;;;;;;5.28;2.90;;;22.80;46.60;;;;;;4995129;28;20050;-37
2024/02/10 01:47:43;;;;;;;6.32;3.20;;;22.80;46.50;;;;;;4997077;28;20050;-36
2024/02/10 01:50:10;;;;;;;4.97;3.20;;;22.80;46.50;;;;;;4993897;28;20065;-35
2024/02/10 01:52:37;;;;;;;4.30;3.13;;;22.70;47.00;;;;;;5000736;28;20045;-37
2024/02/10 01:55:09;;;;;;;5.13;3.15;;;22.70;46.40;;;;;;4999276;28;20030;-39
2024/02/10 01:57:35;;;;;;;3.85;2.90;;;22.70;46.50;;;;;;4988857;28;20094;-34
2024/02/10 02:00:05;;;;;;;6.40;3.30;;;22.70;46.70;;;;;;5048386;28;20039;-38
2024/02/10 02:02:34;;;;;;;3.83;2.83;;;22.80;46.90;;;;;;5072886;28;20037;-39
2024/02/10 02:05:05;;;;;;;3.80;3.00;;;22.70;46.60;;;;;;5071991;28;20890;-37
2024/02/10 02:07:31;;;;;;;5.45;2.72;;;22.70;46.50;;;;;;5074404;28;20596;-38
2024/02/10 02:10:00;;;;;;;4.40;2.95;;;22.70;46.50;;;;;;5065910;28;20040;-37
2024/02/10 02:12:27;;;;;;;3.95;2.90;;;22.70;46.50;;;;;;5071096;28;20036;-35
2024/02/10 02:14:57;;;;;;;8.13;3.13;;;22.70;46.40;;;;;;5070412;28;20386;-34
2024/02/10 02:17:23;;;;;;;4.25;2.85;;;22.70;46.40;;;;;;5056885;28;20031;-34
2024/02/10 02:19:50;;;;;;;4.70;3.10;;;22.70;46.30;;;;;;5074100;28;20097;-37
2024/02/10 02:22:17;;;;;;;3.50;2.72;;;22.70;46.50;;;;;;5069795;28;20029;-37
2024/02/10 02:24:43;;;;;;;3.67;2.88;;;22.70;46.70;;;;;;5073125;28;20121;-35
2024/02/10 02:27:10;;;;;;;5.10;2.70;;;22.70;46.70;;;;;;5073676;28;20048;-35
2024/02/10 02:29:36;;;;;;;4.30;2.60;;;22.70;46.60;;;;;;5070631;28;20035;-37
2024/02/10 02:32:03;;;;;;;3.60;2.80;;;22.70;46.50;;;;;;5077563;28;20032;-36
2024/02/10 02:34:33;;;;;;;;;;;22.70;46.50;;;;;;5073916;28;20085;-33
2024/02/10 02:37:00;;;;;;;3.50;2.33;;;22.70;46.60;;;;;;5075858;28;19912;-36
2024/02/10 02:39:27;;;;;;;;;;;22.70;46.70;;;;;;5071216;28;20060;-35
2024/02/10 02:41:59;;;;;;;2.67;2.42;;;22.70;46.70;;;;;;5070639;28;19971;-37
2024/02/10 02:44:26;;;;;;;3.17;2.42;;;22.70;47.00;;;;;;5071045;28;20084;-37
2024/02/10 02:46:54;;;;;;;2.72;2.30;;;22.70;46.70;;;;;;5072162;28;20045;-39
2024/02/10 02:49:23;;;;;;;3.67;2.78;;;22.70;46.60;;;;;;5072789;28;20032;-34
2024/02/10 02:51:54;;;;;;;2.67;2.35;;;22.70;46.60;;;;;;5075195;28;20028;-40
2024/02/10 02:54:21;;;;;;;3.67;2.42;;;22.70;46.60;;;;;;5074890;28;20047;-35
2024/02/10 02:56:51;;;;;;;3.55;2.70;;;22.60;46.50;;;;;;5076060;28;20020;-39
2024/02/10 02:59:17;;;;;;;3.97;2.70;;;22.70;46.50;;;;;;5078843;28;20080;-38
2024/02/10 03:01:43;;;;;;;5.22;2.38;;;22.70;46.40;;;;;;5073063;28;20028;-37
2024/02/10 03:04:09;;;;;;;3.30;2.53;;;22.60;46.50;;;;;;5077133;28;20020;-37
2024/02/10 03:06:35;;;;;;;3.53;2.65;;;22.60;46.60;;;;;;5072871;28;20047;-39
2024/02/10 03:09:02;;;;;;;3.53;1.95;;;22.60;46.70;;;;;;5075278;28;20059;-39
2024/02/10 03:11:28;;;;;;;4.78;2.53;;;22.70;46.60;;;;;;5071945;28;20032;-37
2024/02/10 03:13:54;;;;;;;3.60;2.40;;;22.70;46.60;;;;;;5072603;28;20078;-38
2024/02/10 03:16:20;;;;;;;4.70;2.67;;;22.60;46.50;;;;;;5073716;28;20032;-35
2024/02/10 03:18:47;;;;;;;4.30;2.70;;;22.60;46.50;;;;;;5071106;28;20028;-33
2024/02/10 03:21:14;;;;;;;3.50;2.17;;;22.60;46.60;;;;;;5073415;28;20025;-37
2024/02/10 03:23:40;;;;;;;5.72;2.53;;;22.60;46.50;;;;;;5070403;28;20270;-40
2024/02/10 03:26:06;;;;;;;6.78;2.60;;;22.60;46.60;;;;;;5071684;28;20040;-38
2024/02/10 03:28:35;;;;;;;3.40;2.40;;;22.60;46.80;;;;;;5075947;28;20029;-36
2024/02/10 03:31:05;;;;;;;3.90;2.60;;;22.60;47.10;;;;;;5072614;28;20033;-40
2024/02/10 03:33:34;;;;;;;3.35;2.13;;;22.60;46.90;;;;;;5072231;28;20029;-38
2024/02/10 03:36:01;;;;;;;7.90;2.92;;;22.60;46.90;;;;;;5075993;28;20044;-39
2024/02/10 03:38:30;;;;;;;4.80;2.70;;;22.60;46.80;;;;;;5074210;28;20107;-37
2024/02/10 03:40:57;;;;;;;4.38;2.42;;;22.60;46.90;;;;;;5074071;28;20045;-34
2024/02/10 03:43:26;;;;;;;4.63;2.42;;;22.60;47.00;;;;;;5070272;28;20021;-37
2024/02/10 03:45:53;;;;;;;5.32;2.50;;;22.60;46.90;;;;;;5076325;28;20039;-36
2024/02/10 03:48:19;;;;;;;3.55;2.45;;;22.60;47.00;;;;;;5071421;28;20033;-38
2024/02/10 03:50:45;;;;;;;3.40;2.45;;;22.60;47.00;;;;;;5080396;28;20059;-37
2024/02/10 03:53:11;;;;;;;4.70;2.10;;;22.60;46.90;;;;;;5078956;28;20063;-35
2024/02/10 03:55:38;;;;;;;3.28;2.30;;;22.60;47.40;;;;;;5074574;28;20039;-38
2024/02/10 03:58:09;;;;;;;3.80;1.77;;;22.60;46.80;;;;;;5078742;28;20036;-38
2024/02/10 04:00:39;;;;;;;3.47;2.50;;;22.60;47.40;;;;;;5075420;28;20059;-39
2024/02/10 04:03:08;;;;;;;3.60;2.15;;;22.60;46.70;;;;;;5080196;28;20036;-39
2024/02/10 04:05:34;;;;;;;3.55;2.40;;;22.60;47.30;;;;;;5080642;28;20064;-40
2024/02/10 04:08:04;;;;;;;3.55;2.22;;;22.60;46.70;;;;;;5075927;28;20028;-39
2024/02/10 04:10:30;;;;;;;3.28;2.30;;;22.60;46.90;;;;;;5076631;28;20036;-38
2024/02/10 04:12:57;;;;;;;3.55;2.00;;;22.60;46.80;;;;;;5075965;28;20054;-37
2024/02/10 04:15:23;;;;;;;3.95;2.65;;;22.60;46.70;;;;;;5080516;28;20570;-37
2024/02/10 04:17:55;;;;;;;4.18;2.20;;;22.60;46.80;;;;;;5080691;28;20020;-38
2024/02/10 04:20:23;;;;;;;3.67;2.03;;;22.60;46.70;;;;;;5075865;28;20094;-37
2024/02/10 04:22:52;;;;;;;3.13;2.17;;;22.60;46.60;;;;;;5080702;28;20627;-37
2024/02/10 04:25:18;;;;;;;2.83;2.10;;;22.60;46.60;;;;;;5075627;28;20043;-40
2024/02/10 04:27:44;;;;;;;5.78;2.53;;;22.60;47.00;;;;;;5079602;28;20059;-39
2024/02/10 04:30:11;;;;;;;7.90;2.50;;;22.60;46.90;;;;;;5073610;28;20877;-46
2024/02/10 04:32:46;;;;;;;5.87;2.10;;;22.60;46.90;;;;;;5074321;28;20031;-37
2024/02/10 04:35:15;;;;;;;5.53;2.28;;;22.60;46.70;;;;;;5075638;28;20021;-39
2024/02/10 04:37:51;;;;;;;5.15;2.80;;;22.60;46.70;;;;;;5077017;28;20084;-38
2024/02/10 04:40:23;;;;;;;4.40;2.63;;;22.60;46.80;;;;;;5073802;28;20039;-37
2024/02/10 04:42:53;;;;;;;5.95;2.38;;;22.50;46.80;;;;;;5077109;28;20025;-36
2024/02/10 04:45:26;;;;;;;5.65;2.50;;;22.50;46.80;;;;;;5076671;28;20029;-39
2024/02/10 04:47:52;;;;;;;3.47;2.30;;;22.50;46.80;;;;;;5075740;28;20048;-39
2024/02/10 04:50:20;;;;;;;4.80;2.50;;;22.50;47.00;;;;;;5070200;28;20029;-36
2024/02/10 04:52:46;;;;;;;5.72;2.72;;;22.50;47.00;;;;;;5073339;28;20127;-39
2024/02/10 04:55:15;;;;;;;3.70;2.38;;;22.50;46.90;;;;;;5075261;28;20037;-38
2024/02/10 04:57:42;;;;;;;3.30;2.40;;;22.50;46.80;;;;;;5082137;28;20036;-38
2024/02/10 05:00:18;;;;;;;4.65;2.50;;;22.50;46.80;;;;;;5060548;28;20386;-40
2024/02/10 05:02:53;;;;;;;5.15;2.80;;;22.40;46.80;;;;;;5073655;28;20118;-37
2024/02/10 05:05:20;;;;;;;3.38;2.22;;;22.40;46.80;;;;;;5075574;28;20190;-38
2024/02/10 05:07:55;;;;;;;4.70;2.40;;;22.40;46.80;;;;;;5073766;28;20037;-40
2024/02/10 05:10:21;;;;;;;4.28;2.50;;;22.40;46.90;;;;;;5070920;28;20031;-40
2024/02/10 05:12:48;;;;;;;3.70;2.10;;;22.40;47.10;;;;;;5071932;28;20029;-40
2024/02/10 05:15:18;;;;;;;2.85;2.20;;;22.40;47.00;;;;;;5072056;28;20039;-37
2024/02/10 05:17:48;;;;;;;4.43;2.33;;;22.40;46.90;;;;;;5069320;28;20057;-37
2024/02/10 05:20:19;;;;;;;3.53;2.03;;;22.30;46.80;;;;;;5079960;28;20039;-36
2024/02/10 05:22:49;;;;;;;3.03;2.33;;;22.30;46.90;;;;;;5075816;28;20033;-40
2024/02/10 05:25:16;;;;;;;4.07;2.33;;;22.30;46.90;;;;;;5072452;28;20032;-42
2024/02/10 05:27:45;;;;;;;3.42;2.42;;;22.30;46.90;;;;;;5057632;28;20040;-40
2024/02/10 05:30:20;;;;;;;4.95;2.63;;;22.30;46.90;;;;;;5048804;28;20092;-40
2024/02/10 05:32:47;;;;;;;3.35;2.35;;;22.30;47.10;;;;;;5068387;28;20032;-40
2024/02/10 05:35:19;;;;;;;2.88;1.90;;;22.30;47.60;;;;;;5074547;28;20051;-39
2024/02/10 05:37:50;;;;;;;3.25;2.30;;;22.30;47.00;;;;;;5053871;28;20990;-38
2024/02/10 05:40:17;;;;;;;3.00;2.20;;;22.30;47.00;;;;;;5073336;28;20036;-36
2024/02/10 05:42:47;;;;;;;2.80;2.22;;;22.20;46.90;;;;;;5068765;28;20021;-40
2024/02/10 05:45:17;;;;;;;3.08;2.50;;;22.20;46.90;;;;;;5081651;28;20124;-37
2024/02/10 05:47:44;;;;;;;3.65;2.30;;;22.20;46.90;;;;;;5073338;28;20102;-37
2024/02/10 05:50:18;;;;;;;4.70;2.63;;;22.20;47.00;;;;;;5070399;28;20040;-36
2024/02/10 05:52:47;;;;;;;2.42;2.22;;;22.20;47.00;;;;;;5073147;28;20033;-36
2024/02/10 05:55:20;;;;;;;2.72;1.95;;;22.20;47.00;;;;;;5055816;28;20036;-39
2024/02/10 05:57:49;;;;;;;3.17;2.08;;;22.20;47.00;;;;;;5076951;28;20029;-39
2024/02/10 06:00:16;;;;;;;4.13;2.30;;;22.20;46.90;;;;;;5071066;28;20025;-41
2024/02/10 06:02:42;;;;;;;3.33;2.25;;;22.20;47.00;;;;;;5075896;28;20155;-39
2024/02/10 06:05:09;;;;;;;3.25;2.35;;;22.10;46.90;;;;;;5071081;28;20500;-39
2024/02/10 06:07:37;;;;;;;3.33;2.45;;;22.10;46.90;;;;;;5053572;28;20042;-38
2024/02/10 06:10:09;;;;;;;;;;;22.10;47.00;;;;;;5049821;28;20032;-38
2024/02/10 06:12:39;;;;;;;3.20;2.40;;;22.10;47.20;;;;;;5057438;28;19951;-39
2024/02/10 06:15:11;;;;;;;4.45;2.67;;;22.10;47.10;;;;;;5056693;28;20033;-38
2024/02/10 06:17:38;;;;;;;3.50;2.40;;;22.10;47.00;;;;;;5051680;28;20032;-38
2024/02/10 06:20:06;;;;;;;2.55;2.10;;;22.10;47.10;;;;;;5052688;28;20036;-39
2024/02/10 06:22:34;;;;;;;3.53;2.15;;;22.00;47.00;;;;;;5053321;28;20053;-37
2024/02/10 06:25:01;;;;;;;3.38;2.20;;;22.10;47.10;;;;;;5051076;28;20033;-39
2024/02/10 06:27:27;;;;;;;4.65;2.22;;;22.10;47.20;;;;;;5050954;28;20127;-40
2024/02/10 06:29:54;;;;;;;2.60;1.98;;;22.00;47.80;;;;;;5054473;28;20035;-41
2024/02/10 06:32:21;;;;;;;3.25;2.10;;;22.00;47.60;;;;;;5053127;28;20056;-40
2024/02/10 06:34:51;;;;;;;;;;;22.00;47.40;;;;;;5053922;28;20121;-40
2024/02/10 06:37:20;;;;;;;2.17;1.85;;;22.00;47.30;;;;;;5056999;28;20215;-40
2024/02/10 06:39:46;;;;;;;4.70;1.92;;;22.00;47.20;;;;;;5050836;28;20029;-37
2024/02/10 06:42:13;;;;;;;2.92;2.53;;;22.00;47.30;;;;;;5043301;28;20032;-40
2024/02/10 06:44:40;;;;;;;4.00;2.40;;;22.00;47.30;;;;;;5044485;28;20033;-39
2024/02/10 06:47:07;;;;;;;4.45;2.50;;;22.00;47.20;;;;;;5048720;28;20079;-39
2024/02/10 06:49:34;;;;;;;3.63;2.40;;;22.00;47.50;;;;;;5046485;28;20034;-40
2024/02/10 06:52:02;;;;;;;3.25;2.60;;;22.00;47.60;;;;;;5044615;28;20048;-37
2024/02/10 06:54:31;;;;;;;;;;;22.00;47.60;;;;;;5047012;28;20036;-35
2024/02/10 06:56:57;;;;;;;3.00;2.30;;;22.00;47.40;;;;;;5047626;28;19936;-36
2024/02/10 06:59:26;;;;;;;6.00;2.33;;;22.00;47.50;;;;;;5045542;28;20032;-40
2024/02/10 07:01:54;;;;;;;3.33;2.50;;;22.00;47.30;;;;;;5047297;28;20278;-40
2024/02/10 07:04:24;;;;;;;3.55;2.50;;;22.00;47.30;;;;;;5050352;28;20119;-39
2024/02/10 07:06:53;;;;;;;3.22;2.33;;;22.00;47.40;;;;;;5071219;28;20043;-39
2024/02/10 07:09:21;;;;;;;3.17;2.30;;;22.00;47.60;;;;;;5070845;28;20028;-38
2024/02/10 07:11:49;;;;;;;2.60;2.17;;;22.00;47.70;;;;;;5070452;28;20024;-38
2024/02/10 07:14:17;;;;;;;4.95;2.45;;;22.00;47.50;;;;;;5071769;28;20020;-40
2024/02/10 07:16:43;;;;;;;3.90;2.63;;;22.00;47.40;;;;;;5068951;28;20025;-40
2024/02/10 07:19:11;;;;;;;4.30;2.33;;;22.00;47.40;;;;;;5070642;28;20569;-40
2024/02/10 07:21:38;;;;;;;3.03;2.38;;;22.00;47.40;;;;;;5071952;28;20028;-40
2024/02/10 07:24:07;;;;;;;3.63;2.28;;;22.00;47.50;;;;;;5070038;28;20073;-40
2024/02/10 07:26:34;;;;;;;2.65;2.45;;;22.00;47.60;;;;;;5072603;28;20094;-36
2024/02/10 07:29:00;;;;;;;3.80;2.50;;;22.00;47.90;;;;;;5073388;28;20052;-39
2024/02/10 07:31:27;;;;;;;4.07;2.47;;;22.00;47.60;;;;;;5076160;28;20111;-37
2024/02/10 07:33:58;;;;;;;2.78;2.20;;;22.00;47.60;;;;;;5071765;28;20507;-40
2024/02/10 07:36:37;;;;;;;3.35;2.35;;;22.00;47.50;;;;;;5079795;28;20040;-36
2024/02/10 07:39:07;;;;;;;4.53;2.40;;;22.00;47.50;;;;;;5072738;28;20415;-34
2024/02/10 07:41:42;;;;;;;3.42;2.47;;;22.00;47.50;;;;;;5077806;28;20088;-38
2024/02/10 07:44:12;;;;;;;3.22;2.72;;;22.00;47.60;;;;;;5072889;28;20048;-40
2024/02/10 07:46:39;;;;;;;3.05;2.38;;;22.00;47.70;;;;;;5073919;28;20044;-36
2024/02/10 07:49:06;;;;;;;2.83;2.50;;;22.00;47.90;;;;;;5070842;28;20032;-37
2024/02/10 07:51:35;;;;;;;2.70;2.00;;;22.00;47.70;;;;;;5077211;28;20062;-40
2024/02/10 07:54:01;;;;;;;4.60;2.80;;;22.00;47.60;;;;;;5074374;28;20044;-37
2024/02/10 07:56:28;;;;;;;3.35;2.38;;;22.00;47.60;;;;;;5075573;28;20033;-42
2024/02/10 07:59:03;;;;;;;2.95;2.35;;;22.00;47.60;;;;;;5071980;28;20092;-40
2024/02/10 08:01:29;;;;;;;4.32;2.67;;;21.90;47.60;;;;;;5073021;28;20028;-39
2024/02/10 08:03:56;;;;;;;3.40;2.33;;;21.90;47.70;;;;;;5075826;28;20033;-38
2024/02/10 08:06:26;;;;;;;3.72;2.42;;;21.90;47.80;;;;;;5075358;28;20063;-38
2024/02/10 08:09:00;;;;;;;4.00;2.50;;;21.90;47.80;;;;;;5079292;28;20048;-40
2024/02/10 08:11:30;;;;;;;3.35;2.30;;;21.90;47.60;;;;;;5075309;28;20031;-35
2024/02/10 08:13:56;;;;;;;3.22;2.20;;;21.90;48.20;;;;;;5072308;28;20021;-40
2024/02/10 08:16:28;;;;;;;3.15;2.28;;;21.90;47.60;;;;;;5072424;28;20040;-37
2024/02/10 08:18:55;;;;;;;3.15;2.40;;;21.90;47.60;;;;;;5077964;28;20040;-40
2024/02/10 08:21:22;;;;;;;3.80;2.30;;;21.90;47.60;;;;;;5078003;28;20036;-35
2024/02/10 08:23:57;;;;;;;3.58;2.78;;;21.90;47.90;;;;;;5083629;28;20024;-39
2024/02/10 08:26:27;;;;;;;2.67;2.40;;;21.90;48.00;;;;;;5078928;28;20033;-35
2024/02/10 08:28:58;;;;;;;2.92;2.28;;;21.90;47.80;;;;;;5079075;28;20024;-38
2024/02/10 08:31:30;;;;;;;2.88;2.15;;;21.90;47.80;;;;;;5072812;28;20039;-38
2024/02/10 08:33:58;;;;;;;3.50;2.20;;;21.90;47.70;;;;;;5059199;28;20029;-40
2024/02/10 08:36:27;;;;;;;3.67;2.40;;;21.90;47.80;;;;;;5080458;28;20028;-38
2024/02/10 08:38:58;;;;;;;3.63;2.28;;;21.90;47.80;;;;;;5081003;28;20025;-40
2024/02/10 08:41:25;;;;;;;4.68;2.45;;;21.90;48.00;;;;;;5080404;28;20561;-38
2024/02/10 08:43:51;;;;;;;3.15;2.38;;;21.80;48.10;;;;;;5077397;28;20032;-41
2024/02/10 08:46:18;;;;;;;2.90;2.35;;;21.90;47.90;;;;;;5078211;28;20037;-37
2024/02/10 08:48:44;;;;;;;2.80;2.40;;;21.90;47.80;;;;;;5074936;28;20578;-38
2024/02/10 08:51:13;;;;;;;2.45;2.17;;;21.90;47.80;;;;;;5082159;28;20029;-38
2024/02/10 08:53:43;;;;;;;4.53;2.55;;;21.90;47.80;;;;;;5053309;28;20063;-36
2024/02/10 08:56:12;;;;;;;3.28;2.40;;;21.80;47.80;;;;;;5071186;28;20052;-38
2024/02/10 08:58:41;;;;;;;3.45;2.50;;;21.80;47.90;;;;;;5077508;28;20021;-37
2024/02/10 09:01:15;;;;;;;3.15;2.60;;;21.80;48.10;;;;;;5074642;28;20055;-38
2024/02/10 09:03:52;;;;;;;2.83;2.50;;;21.80;48.10;;;;;;5075708;28;20036;-38
2024/02/10 09:06:21;;;;;;;3.38;2.80;;;21.80;48.00;;;;;;5082575;28;20057;-40
2024/02/10 09:08:51;;;;;;;3.05;2.67;;;21.80;47.90;;;;;;5079864;28;20024;-41
2024/02/10 09:11:20;;;;;;;3.45;2.38;;;21.80;48.00;;;;;;5078547;28;20036;-40
2024/02/10 09:13:48;;;;;;;4.78;2.58;;;21.80;48.00;;;;;;5073205;28;20071;-35
2024/02/10 09:16:14;;;;;;;3.88;2.33;;;21.80;48.00;;;;;;5076125;28;20024;-39
2024/02/10 09:18:42;;;;;;;2.65;2.30;;;21.80;48.20;;;;;;5078955;28;20358;-39
2024/02/10 09:21:09;;;;;;;2.70;2.28;;;21.80;48.30;;;;;;5079067;28;20484;-40
2024/02/10 09:23:35;;;;;;;;;;;21.80;48.10;;;;;;5075485;28;20031;-39
2024/02/10 09:26:01;;;;;;;4.10;2.30;;;21.80;48.10;;;;;;5078731;28;19916;-40
2024/02/10 09:28:29;;;;;;;2.83;2.47;;;21.80;48.10;;;;;;5071139;28;20040;-40
2024/02/10 09:30:56;;;;;;;3.05;2.55;;;21.80;48.10;;;;;;5076146;28;20070;-37
2024/02/10 09:33:22;;;;;;;5.00;2.88;;;21.80;48.10;;;;;;5077732;28;20051;-39
2024/02/10 09:35:50;;;;;;;3.27;2.40;;;21.80;48.50;;;;;;5078820;28;20115;-40
2024/02/10 09:38:17;;;;;;;3.75;2.65;;;21.80;48.50;;;;;;5080120;28;20072;-38
2024/02/10 09:40:43;;;;;;;4.93;2.50;;;21.80;48.40;;;;;;5078471;28;20031;-36
2024/02/10 09:43:09;;;;;;;2.53;2.23;;;21.80;48.20;;;;;;5072024;28;20080;-36
2024/02/10 09:45:41;;;;;;;5.05;2.63;;;21.80;48.10;;;;;;5077456;28;20021;-36
2024/02/10 09:48:11;;;;;;;5.22;2.60;;;21.80;48.20;;;;;;5079227;28;20120;-39
2024/02/10 09:50:37;;;;;;;3.50;2.30;;;21.80;48.20;;;;;;5055629;28;20025;-37
2024/02/10 09:53:03;;;;;;;3.17;2.30;;;21.80;48.30;;;;;;5080253;28;20033;-39
2024/02/10 09:55:30;;;;;;;3.78;2.88;;;21.70;48.50;;;;;;5078218;28;20071;-39
2024/02/10 09:57:56;;;;;;;3.92;2.70;;;21.70;48.40;;;;;;5078629;28;20477;-37
2024/02/10 10:00:22;;;;;;;3.90;2.53;;;21.80;48.30;;;;;;5074337;28;20036;-39
2024/02/10 10:02:50;;;;;;;3.60;2.97;;;21.80;48.30;;;;;;5074854;28;20028;-35
2024/02/10 10:05:20;;;;;;;2.72;2.35;;;21.80;48.30;;;;;;5075131;28;20060;-37
2024/02/10 10:07:52;;;;;;;3.28;2.65;;;21.70;48.30;;;;;;5076278;28;20041;-37
2024/02/10 10:10:19;;;;;;;2.63;2.35;;;21.70;48.30;;;;;;5056439;28;20029;-37
2024/02/10 10:12:46;;;;;;;3.08;2.45;;;21.70;48.50;;;;;;5073742;28;20092;-34
2024/02/10 10:15:16;;;;;;;3.75;2.80;;;21.70;48.70;;;;;;5080061;28;20032;-37
2024/02/10 10:17:42;;;;;;;3.15;2.42;;;21.70;48.40;;;;;;5078036;28;20094;-38
2024/02/10 10:20:09;;;;;;;3.30;2.45;;;21.70;48.30;;;;;;5077359;28;20151;-36
2024/02/10 10:22:38;;;;;;;4.13;2.70;;;21.70;48.30;;;;;;5076945;28;20140;-36
2024/02/10 10:25:05;;;;;;;3.17;2.70;;;21.70;48.30;;;;;;5072912;28;20032;-37
2024/02/10 10:27:31;;;;;;;3.15;2.75;;;21.70;48.40;;;;;;5072196;28;20056;-40
2024/02/10 10:29:57;;;;;;;3.55;2.70;;;21.70;48.60;;;;;;5072420;28;20078;-39
2024/02/10 10:32:27;;;;;;;3.75;2.63;;;21.70;48.70;;;;;;5080297;28;20436;-37
2024/02/10 10:34:57;;;;;;;2.95;2.40;;;21.70;48.80;;;;;;5071921;28;20024;-39
2024/02/10 10:37:26;;;;;;;2.88;2.60;;;21.70;48.40;;;;;;5073648;28;20488;-40
2024/02/10 10:39:53;;;;;;;2.95;2.50;;;21.70;48.40;;;;;;5077878;28;20874;-38
2024/02/10 10:42:22;;;;;;;3.83;3.00;;;21.70;48.40;;;;;;5079103;28;20044;-39
2024/02/10 10:44:51;;;;;;;3.80;2.88;;;21.70;48.40;;;;;;5042809;28;20032;-38
2024/02/10 10:47:22;;;;;;;5.20;2.63;;;21.70;48.40;;;;;;5077962;28;20066;-39
2024/02/10 10:49:53;;;;;;;4.45;2.75;;;21.70;48.50;;;;;;5080276;28;20024;-36
2024/02/10 10:52:22;;;;;;;3.65;2.53;;;21.70;48.70;;;;;;5070199;28;20056;-41
2024/02/10 10:54:49;;;;;;;3.40;2.80;;;21.70;48.60;;;;;;5057707;28;20063;-37
2024/02/10 10:57:22;;;;;;;;;;;21.70;48.40;;;;;;5074592;28;20119;-38
2024/02/10 11:00:00;;;;;;;3.13;2.58;;;21.70;48.40;;;;;;5055155;28;19967;-38
2024/02/10 11:02:28;;;;;;;3.28;2.55;;;21.70;48.40;;;;;;5055929;28;20032;-37
2024/02/10 11:05:08;;;;;;;4.18;2.70;;;21.60;48.40;;;;;;5074675;28;20060;-37
2024/02/10 11:07:36;;;;;;;3.45;2.53;;;21.60;48.40;;;;;;5073971;28;20060;-37
2024/02/10 11:10:05;;;;;;;4.05;2.65;;;21.60;48.70;;;;;;5077715;28;20039;-39
2024/02/10 11:12:32;;;;;;;3.00;2.53;;;21.60;48.50;;;;;;5076330;28;20090;-38
2024/02/10 11:14:58;;;;;;;4.82;2.60;;;21.60;48.40;;;;;;5071188;28;20033;-39
2024/02/10 11:17:29;;;;;;;3.77;2.60;;;21.60;48.40;;;;;;5078573;28;20037;-40
2024/02/10 11:20:03;;;;;;;3.80;2.70;;;21.60;48.40;;;;;;5075650;28;20036;-38
2024/02/10 11:22:44;;;;;;;4.03;2.80;;;21.60;48.40;;;;;;5076881;28;20027;-35
2024/02/10 11:25:11;;;;;;;3.38;2.45;;;21.60;48.60;;;;;;5074326;28;20126;-33
2024/02/10 11:27:38;;;;;;;3.08;2.70;;;21.60;48.80;;;;;;5059694;28;20025;-37
2024/02/10 11:30:07;;;;;;;3.00;2.60;;;21.60;48.60;;;;;;5077937;28;20036;-39
2024/02/10 11:32:33;;;;;;;3.92;2.67;;;21.60;48.40;;;;;;5068445;28;20058;-40
2024/02/10 11:34:59;;;;;;;3.20;2.55;;;21.60;48.50;;;;;;5055058;28;20092;-37
2024/02/10 11:37:29;;;;;;;3.37;2.70;;;21.60;48.40;;;;;;5073918;28;20029;-39
2024/02/10 11:39:56;;;;;;;3.28;2.65;;;21.60;48.40;;;;;;5052158;28;20315;-37
2024/02/10 11:42:30;;;;;;;3.58;2.40;;;21.60;48.90;;;;;;5074327;28;20032;-38
2024/02/10 11:45:00;;;;;;;6.35;2.90;;;21.60;48.90;;;;;;5074201;28;20094;-39
2024/02/10 11:47:28;;;;;;;7.85;2.72;;;21.60;49.00;;;;;;5076457;28;20044;-35
2024/02/10 11:49:57;;;;;;;4.32;2.80;;;21.70;48.80;;;;;;5073435;28;20041;-36
2024/02/10 11:52:26;;;;;;;3.50;2.67;;;21.70;48.70;;;;;;5073722;28;20025;-33
2024/02/10 11:54:54;;;;;;;4.10;2.58;;;21.70;48.60;;;;;;5076880;28;20040;-37
2024/02/10 11:57:22;;;;;;;5.55;2.60;;;21.70;48.60;;;;;;5063919;28;20604;-35
2024/02/10 11:59:48;;;;;;;3.50;2.63;;;21.70;48.70;;;;;;5078483;28;20036;-37
2024/02/10 12:02:15;;;;;;;3.97;2.88;;;21.80;49.00;;;;;;5077563;28;20028;-37
2024/02/10 12:04:45;;;;;;;3.90;2.80;;;21.80;48.70;;;;;;5083263;28;20160;-38
2024/02/10 12:07:12;;;;;;;4.43;2.72;;;21.80;48.50;;;;;;5081814;28;20040;-40
2024/02/10 12:09:39;;;;;;;3.85;2.72;;;21.80;48.50;;;;;;5072793;28;20024;-39
2024/02/10 12:12:05;;;;;;;;;;;21.80;48.40;;;;;;5073299;28;20036;-40
2024/02/10 12:14:31;;;;;;;4.30;2.78;;;21.80;48.50;;;;;;5076041;28;19912;-40
2024/02/10 12:17:07;;;;;;;4.07;2.40;;;21.80;48.50;;;;;;5061551;28;20438;-40
2024/02/10 12:19:40;;;;;;;3.60;2.75;;;21.80;48.70;;;;;;5084298;28;20081;-40
2024/02/10 12:22:09;;;;;;;3.85;2.45;;;21.80;48.50;;;;;;5074999;28;20036;-37
2024/02/10 12:24:38;;;;;;;3.53;2.72;;;21.80;48.40;;;;;;5077455;28;20088;-37
2024/02/10 12:27:05;;;;;;;3.65;2.90;;;21.80;48.40;;;;;;5080003;28;20048;-37
2024/02/10 12:29:31;;;;;;;2.78;2.47;;;21.80;48.40;;;;;;5073885;28;20033;-39
2024/02/10 12:31:57;;;;;;;5.13;2.78;;;21.70;48.30;;;;;;5075346;28;20036;-38
2024/02/10 12:34:25;;;;;;;3.63;2.70;;;21.70;48.40;;;;;;5079840;28;20033;-37
2024/02/10 12:36:51;;;;;;;2.72;2.35;;;21.70;48.60;;;;;;5075657;28;20040;-40
2024/02/10 12:39:18;;;;;;;3.85;2.67;;;21.70;48.60;;;;;;5078093;28;20020;-40
2024/02/10 12:41:44;;;;;;;;;;;21.70;48.40;;;;;;5057255;28;20033;-37
2024/02/10 12:44:11;;;;;;;3.80;2.90;;;21.70;48.40;;;;;;5077941;28;19951;-39
2024/02/10 12:46:38;;;;;;;3.28;2.70;;;21.70;48.40;;;;;;5078060;28;20096;-38
2024/02/10 12:49:08;;;;;;;2.95;2.33;;;21.70;48.40;;;;;;5080136;28;20024;-40
2024/02/10 12:51:35;;;;;;;2.85;2.60;;;21.70;48.50;;;;;;5077461;28;20024;-40
2024/02/10 12:54:01;;;;;;;3.05;2.42;;;21.70;48.80;;;;;;5076347;28;20063;-40